Time;durP1;ratioP1;P1;durP2;ratioP2;P2;SDS_P1;SDS_P2;PMS_P1;PMS_P2;Temp;Humidity;BMP_temperature;BMP_pressure;BME280_temperature;BME280_humidity;BME280_pressure;Samples;Min_cycle;Max_cycle;Signal;HPM_P1;HPM_P2
2022/11/14 00:00:45;;;;;;;62.53;44.45;;;6.50;99.90;;;;;;5154431;27;20043;-80
2022/11/14 00:03:12;;;;;;;64.75;44.67;;;6.50;99.90;;;;;;5102250;27;20042;-80
2022/11/14 00:05:40;;;;;;;63.60;43.28;;;6.50;99.90;;;;;;5108842;27;20103;-78
2022/11/14 00:08:08;;;;;;;63.78;43.13;;;6.60;99.90;;;;;;5127450;27;20035;-80
2022/11/14 00:10:34;;;;;;;60.97;41.55;;;6.60;99.90;;;;;;5099438;27;20077;-79
2022/11/14 00:13:00;;;;;;;62.08;43.60;;;6.60;99.90;;;;;;5082225;27;20062;-80
2022/11/14 00:15:26;;;;;;;64.15;43.53;;;6.60;99.90;;;;;;5102656;27;20079;-80
2022/11/14 00:17:51;;;;;;;58.33;42.10;;;6.60;99.90;;;;;;5111708;27;20114;-81
2022/11/14 00:20:17;;;;;;;53.90;41.42;;;6.60;99.90;;;;;;5101481;27;20039;-81
2022/11/14 00:22:43;;;;;;;55.60;41.45;;;6.60;99.90;;;;;;5114545;27;20084;-81
2022/11/14 00:25:12;;;;;;;58.83;42.75;;;6.60;99.90;;;;;;5088540;27;20058;-82
2022/11/14 00:27:38;;;;;;;57.97;42.50;;;6.60;99.90;;;;;;5122321;27;20061;-81
2022/11/14 00:30:04;;;;;;;56.05;42.67;;;6.60;99.90;;;;;;5108402;27;20038;-79
2022/11/14 00:32:30;;;;;;;54.30;41.55;;;6.70;99.90;;;;;;5108396;27;20504;-81
2022/11/14 00:34:56;;;;;;;52.33;41.63;;;6.70;99.90;;;;;;5120690;27;20528;-81
2022/11/14 00:37:21;;;;;;;51.13;40.30;;;6.70;99.90;;;;;;5123293;27;20050;-79
2022/11/14 00:39:47;;;;;;;58.60;42.70;;;6.70;99.90;;;;;;5130056;27;20042;-80
2022/11/14 00:42:16;;;;;;;53.85;41.90;;;6.70;99.90;;;;;;5108855;27;20043;-80
2022/11/14 00:44:42;;;;;;;58.10;44.28;;;6.80;99.90;;;;;;5155906;27;20577;-81
2022/11/14 00:47:07;;;;;;;56.40;44.65;;;6.80;99.90;;;;;;5128216;27;20109;-81
2022/11/14 00:49:34;;;;;;;51.25;42.17;;;6.80;99.90;;;;;;5130887;27;20043;-81
2022/11/14 00:52:00;;;;;;;51.85;42.05;;;6.80;99.90;;;;;;5131193;27;20061;-80
2022/11/14 00:54:26;;;;;;;55.67;44.10;;;6.80;99.90;;;;;;5108972;27;20043;-81
2022/11/14 00:56:52;;;;;;;54.38;42.95;;;6.80;99.90;;;;;;5099450;27;20520;-80
2022/11/14 00:59:17;;;;;;;54.70;43.63;;;6.80;99.90;;;;;;5104376;27;20043;-79
2022/11/14 01:01:43;;;;;;;54.40;43.03;;;6.80;99.90;;;;;;5108570;27;20043;-80
2022/11/14 01:04:09;;;;;;;57.53;45.10;;;6.80;99.90;;;;;;5131914;27;20043;-80
2022/11/14 01:06:35;;;;;;;52.65;43.15;;;6.80;99.90;;;;;;5106240;27;20050;-79
2022/11/14 01:09:00;;;;;;;55.42;42.38;;;6.80;99.90;;;;;;5126156;27;20058;-79
2022/11/14 01:11:26;;;;;;;51.58;43.15;;;6.80;99.90;;;;;;5117591;27;20501;-80
2022/11/14 01:13:52;;;;;;;55.20;44.90;;;6.80;99.90;;;;;;5122781;27;20135;-80
2022/11/14 01:16:18;;;;;;;57.50;45.30;;;6.80;99.90;;;;;;5104813;27;20125;-80
2022/11/14 01:18:44;;;;;;;56.03;46.10;;;6.80;99.90;;;;;;5086589;27;20496;-80
2022/11/14 01:21:12;;;;;;;53.83;44.45;;;6.80;99.90;;;;;;5135294;27;20047;-79
2022/11/14 01:23:39;;;;;;;57.63;45.28;;;6.70;99.90;;;;;;5102324;27;20638;-79
2022/11/14 01:26:08;;;;;;;58.38;45.78;;;6.70;99.90;;;;;;5088528;27;20119;-80
2022/11/14 01:28:35;;;;;;;58.08;45.28;;;6.70;99.90;;;;;;5122596;27;20126;-80
2022/11/14 01:31:12;;;;;;;56.20;44.97;;;6.70;99.90;;;;;;5119111;27;20558;-80
2022/11/14 01:33:38;;;;;;;57.92;46.17;;;6.70;99.90;;;;;;5153171;27;20070;-80
2022/11/14 01:36:05;;;;;;;58.60;47.70;;;6.70;99.90;;;;;;5154701;27;20036;-80
2022/11/14 01:38:31;;;;;;;64.38;48.83;;;6.70;99.90;;;;;;5133120;27;20098;-80
2022/11/14 01:40:57;;;;;;;62.28;50.00;;;6.70;99.90;;;;;;5124935;27;20054;-80
2022/11/14 01:43:26;;;;;;;65.57;50.20;;;6.70;99.90;;;;;;5110843;27;20159;-79
2022/11/14 01:46:04;;;;;;;65.40;51.42;;;6.70;99.90;;;;;;5126746;27;20117;-80
2022/11/14 01:48:39;;;;;;;68.05;51.92;;;6.70;99.90;;;;;;5122705;27;20130;-81
2022/11/14 01:51:31;;;;;;;70.28;53.70;;;6.60;99.90;;;;;;5114409;27;20051;-80
2022/11/14 01:54:04;;;;;;;70.50;53.90;;;6.60;99.90;;;;;;5109006;27;20043;-81
2022/11/14 01:56:41;;;;;;;67.65;52.08;;;6.60;99.90;;;;;;5110118;27;20055;-81
2022/11/14 01:59:13;;;;;;;70.10;53.58;;;6.60;99.90;;;;;;5123759;27;20047;-81
2022/11/14 02:01:46;;;;;;;69.32;53.60;;;6.50;99.90;;;;;;5123705;27;20079;-81
2022/11/14 02:04:18;;;;;;;72.18;54.65;;;6.60;99.90;;;;;;5115076;27;20133;-81
2022/11/14 02:06:45;;;;;;;70.47;54.55;;;6.60;99.90;;;;;;5151920;27;20067;-81
2022/11/14 02:09:11;;;;;;;73.82;57.35;;;6.50;99.90;;;;;;5117749;27;20055;-80
2022/11/14 02:11:42;;;;;;;73.00;55.30;;;6.50;99.90;;;;;;5122349;27;20039;-81
2022/11/14 02:14:08;;;;;;;;;;;6.60;99.90;;;;;;5124969;27;20536;-80
2022/11/14 02:16:34;;;;;;;75.53;55.30;;;6.60;99.90;;;;;;5107792;27;19934;-81
2022/11/14 02:19:00;;;;;;;75.00;56.50;;;6.50;99.90;;;;;;5117521;27;20108;-81
2022/11/14 02:21:26;;;;;;;75.85;56.30;;;6.60;99.90;;;;;;5110288;27;20137;-81
2022/11/14 02:23:51;;;;;;;80.75;59.28;;;6.50;99.90;;;;;;5102369;27;20047;-79
2022/11/14 02:26:22;;;;;;;74.53;56.03;;;6.60;99.90;;;;;;5122894;27;20087;-80
2022/11/14 02:28:48;;;;;;;75.30;58.30;;;6.50;99.90;;;;;;5123285;27;20449;-80
2022/11/14 02:31:14;;;;;;;81.68;59.40;;;6.50;99.90;;;;;;5120234;27;20046;-80
2022/11/14 02:33:43;;;;;;;77.80;58.00;;;6.50;99.90;;;;;;5134714;27;20042;-80
2022/11/14 02:36:09;;;;;;;77.95;57.05;;;6.50;99.90;;;;;;5129721;27;20049;-79
2022/11/14 02:38:35;;;;;;;81.47;59.30;;;6.50;99.90;;;;;;5131503;27;20288;-80
2022/11/14 02:41:02;;;;;;;81.75;59.15;;;6.50;99.90;;;;;;5119193;27;20059;-80
2022/11/14 02:43:28;;;;;;;83.97;61.65;;;6.50;99.90;;;;;;5111869;27;20506;-79
2022/11/14 02:45:53;;;;;;;80.50;60.08;;;6.50;99.90;;;;;;5120203;27;20103;-81
2022/11/14 02:48:19;;;;;;;82.90;59.58;;;6.50;99.90;;;;;;5130728;27;20133;-80
2022/11/14 02:50:48;;;;;;;82.70;60.58;;;6.50;99.90;;;;;;5102124;27;20051;-80
2022/11/14 02:53:14;;;;;;;85.22;60.28;;;6.50;99.90;;;;;;5122212;27;20042;-80
2022/11/14 02:55:40;;;;;;;85.38;60.28;;;6.50;99.90;;;;;;5111092;27;20040;-80
2022/11/14 02:58:06;;;;;;;84.18;60.58;;;6.40;99.90;;;;;;5106051;27;20047;-80
2022/11/14 03:00:32;;;;;;;84.60;61.13;;;6.50;99.90;;;;;;5102548;27;20115;-80
2022/11/14 03:03:01;;;;;;;86.70;62.60;;;6.50;99.90;;;;;;5118912;27;20040;-80
2022/11/14 03:05:27;;;;;;;87.53;63.28;;;6.40;99.90;;;;;;5117464;27;20084;-80
2022/11/14 03:07:54;;;;;;;82.80;60.40;;;6.40;99.90;;;;;;5140085;27;20136;-80
2022/11/14 03:10:20;;;;;;;87.88;63.28;;;6.50;99.90;;;;;;5095648;27;20180;-81
2022/11/14 03:12:46;;;;;;;91.18;64.53;;;6.50;99.90;;;;;;5096218;27;20126;-80
2022/11/14 03:15:12;;;;;;;83.95;60.17;;;6.50;99.90;;;;;;5110934;27;20504;-80
2022/11/14 03:17:38;;;;;;;88.43;62.08;;;6.50;99.90;;;;;;5113834;27;20070;-80
2022/11/14 03:20:05;;;;;;;84.95;61.95;;;6.40;99.90;;;;;;5116574;27;20104;-79
2022/11/14 03:22:31;;;;;;;87.85;63.67;;;6.50;99.90;;;;;;5110831;27;20122;-80
2022/11/14 03:24:57;;;;;;;86.95;61.83;;;6.50;99.90;;;;;;5140799;27;20095;-80
2022/11/14 03:27:23;;;;;;;90.40;63.95;;;6.50;99.90;;;;;;5079146;27;20130;-80
2022/11/14 03:29:48;;;;;;;85.63;61.97;;;6.40;99.90;;;;;;5115910;27;20195;-80
2022/11/14 03:32:14;;;;;;;89.72;63.53;;;6.50;99.90;;;;;;5090001;28;20126;-80
2022/11/14 03:34:41;;;;;;;87.82;63.72;;;6.40;99.90;;;;;;5113390;27;20046;-81
2022/11/14 03:37:08;;;;;;;88.68;61.97;;;6.40;99.90;;;;;;5094221;27;20042;-80
2022/11/14 03:39:34;;;;;;;88.18;64.32;;;6.40;99.90;;;;;;5128268;27;20067;-79
2022/11/14 03:42:00;;;;;;;86.30;64.07;;;6.40;99.90;;;;;;5125400;27;20054;-79
2022/11/14 03:44:25;;;;;;;88.45;63.50;;;6.40;99.90;;;;;;5120087;27;20732;-80
2022/11/14 03:46:51;;;;;;;87.53;64.35;;;6.40;99.90;;;;;;5093410;27;20083;-80
2022/11/14 03:49:17;;;;;;;89.10;64.75;;;6.40;99.90;;;;;;5107617;27;20046;-80
2022/11/14 03:51:43;;;;;;;87.53;62.83;;;6.40;99.90;;;;;;5083442;27;20103;-80
2022/11/14 03:54:09;;;;;;;90.88;66.07;;;6.40;99.90;;;;;;5117817;27;20054;-79
2022/11/14 03:56:35;;;;;;;88.75;64.47;;;6.40;99.90;;;;;;5102527;27;20044;-80
2022/11/14 03:59:00;;;;;;;84.05;61.65;;;6.40;99.90;;;;;;5104759;27;20074;-80
2022/11/14 04:01:28;;;;;;;84.03;60.97;;;6.40;99.90;;;;;;5120244;27;20049;-80
2022/11/14 04:03:56;;;;;;;85.57;62.38;;;6.40;99.90;;;;;;5120652;27;20047;-80
2022/11/14 04:06:22;;;;;;;87.00;63.00;;;6.40;99.90;;;;;;5107733;27;20491;-80
2022/11/14 04:08:48;;;;;;;89.22;64.57;;;6.40;99.90;;;;;;5108208;27;20050;-80
2022/11/14 04:11:13;;;;;;;85.07;62.33;;;6.40;99.90;;;;;;5120257;27;20058;-81
2022/11/14 04:13:39;;;;;;;86.38;63.80;;;6.30;99.90;;;;;;5131601;27;20501;-79
2022/11/14 04:16:07;;;;;;;82.13;59.90;;;6.40;99.90;;;;;;5095438;27;20050;-80
2022/11/14 04:18:33;;;;;;;82.53;61.42;;;6.30;99.90;;;;;;5103549;27;20047;-80
2022/11/14 04:21:01;;;;;;;82.55;62.65;;;6.30;99.90;;;;;;5106574;27;20065;-80
2022/11/14 04:23:27;;;;;;;81.40;60.35;;;6.30;99.90;;;;;;5083434;27;20137;-80
2022/11/14 04:25:53;;;;;;;80.60;61.25;;;6.20;99.90;;;;;;5114328;27;20495;-80
2022/11/14 04:28:19;;;;;;;81.97;60.33;;;6.30;99.90;;;;;;5118781;27;20055;-79
2022/11/14 04:30:45;;;;;;;79.85;60.42;;;6.30;99.90;;;;;;5122201;27;20517;-79
2022/11/14 04:33:11;;;;;;;85.00;62.90;;;6.30;99.90;;;;;;5090738;27;20616;-78
2022/11/14 04:35:37;;;;;;;78.35;59.45;;;6.30;99.90;;;;;;5099829;27;20043;-79
2022/11/14 04:38:03;;;;;;;83.05;62.28;;;6.30;99.90;;;;;;5121389;27;20046;-81
2022/11/14 04:40:29;;;;;;;79.85;58.75;;;6.30;99.90;;;;;;5122460;27;20042;-79
2022/11/14 04:42:55;;;;;;;80.93;60.15;;;6.30;99.90;;;;;;5120305;27;20055;-78
2022/11/14 04:45:20;;;;;;;78.60;59.40;;;6.30;99.90;;;;;;5120463;27;20590;-79
2022/11/14 04:47:46;;;;;;;87.40;63.95;;;6.30;99.90;;;;;;5092423;27;20055;-79
2022/11/14 04:50:12;;;;;;;82.78;61.63;;;6.40;99.90;;;;;;5067117;27;20133;-79
2022/11/14 04:52:38;;;;;;;81.38;62.65;;;6.30;99.90;;;;;;5103154;27;20035;-80
2022/11/14 04:55:04;;;;;;;79.97;60.25;;;6.30;99.90;;;;;;5102485;27;20055;-78
2022/11/14 04:57:30;;;;;;;83.70;62.22;;;6.30;99.90;;;;;;5127111;27;20052;-80
2022/11/14 04:59:55;;;;;;;81.85;61.28;;;6.30;99.90;;;;;;5129165;27;20043;-79
2022/11/14 05:02:25;;;;;;;78.68;59.28;;;6.30;99.90;;;;;;5078047;27;20493;-79
2022/11/14 05:04:51;;;;;;;79.85;61.38;;;6.30;99.90;;;;;;5090320;28;20047;-72
2022/11/14 05:07:17;;;;;;;83.38;62.80;;;6.30;99.90;;;;;;5132625;27;20043;-72
2022/11/14 05:09:43;;;;;;;80.65;59.42;;;6.30;99.90;;;;;;5109280;27;20112;-72
2022/11/14 05:12:09;;;;;;;84.28;61.50;;;6.30;99.90;;;;;;5109759;27;20039;-72
2022/11/14 05:14:34;;;;;;;82.88;62.78;;;6.40;99.90;;;;;;5084109;28;20637;-72
2022/11/14 05:17:00;;;;;;;81.35;60.20;;;6.30;99.90;;;;;;5100614;27;20043;-72
2022/11/14 05:19:26;;;;;;;83.13;61.55;;;6.40;99.90;;;;;;5100516;27;20050;-72
2022/11/14 05:21:52;;;;;;;85.63;63.08;;;6.30;99.90;;;;;;5090731;27;20062;-72
2022/11/14 05:24:18;;;;;;;80.72;61.08;;;6.30;99.90;;;;;;5102184;28;20047;-71
2022/11/14 05:26:44;;;;;;;81.00;62.13;;;6.30;99.90;;;;;;5111629;27;20557;-72
2022/11/14 05:29:10;;;;;;;80.93;60.85;;;6.30;99.90;;;;;;5115476;27;20130;-73
2022/11/14 05:31:35;;;;;;;81.03;62.78;;;6.50;99.90;;;;;;5120449;27;20090;-72
2022/11/14 05:34:01;;;;;;;81.93;62.95;;;6.40;99.90;;;;;;5136319;27;20051;-72
2022/11/14 05:36:27;;;;;;;80.85;60.05;;;6.40;99.90;;;;;;5154602;27;20042;-72
2022/11/14 05:38:53;;;;;;;81.93;60.95;;;6.40;99.90;;;;;;5100614;27;20130;-72
2022/11/14 05:41:19;;;;;;;80.32;60.92;;;6.40;99.90;;;;;;5099268;27;20040;-72
2022/11/14 05:43:45;;;;;;;85.90;62.08;;;6.40;99.90;;;;;;5109353;27;20055;-71
2022/11/14 05:46:13;;;;;;;81.20;61.08;;;6.30;99.90;;;;;;5121513;27;20051;-71
2022/11/14 05:48:40;;;;;;;82.38;60.88;;;6.30;99.90;;;;;;5090376;28;20107;-72
2022/11/14 05:51:08;;;;;;;81.95;59.85;;;6.30;99.90;;;;;;5118709;27;20074;-72
2022/11/14 05:53:34;;;;;;;89.07;65.53;;;6.40;99.90;;;;;;5148939;27;20043;-80
2022/11/14 05:56:01;;;;;;;87.82;63.95;;;6.40;99.90;;;;;;5119702;27;20125;-79
2022/11/14 05:58:27;;;;;;;83.20;60.63;;;6.40;99.90;;;;;;5100794;27;20041;-80
2022/11/14 06:01:14;;;;;;;89.75;63.42;;;6.30;99.90;;;;;;5128236;27;20426;-80
2022/11/14 06:03:42;;;;;;;88.35;63.20;;;6.30;99.90;;;;;;5101228;27;20050;-72
2022/11/14 06:06:10;;;;;;;91.05;64.85;;;6.30;99.90;;;;;;5097563;27;20050;-72
2022/11/14 06:08:37;;;;;;;85.28;61.47;;;6.30;99.90;;;;;;5106493;27;20054;-81
2022/11/14 06:11:07;;;;;;;88.40;64.25;;;6.30;99.90;;;;;;5117852;27;20059;-79
2022/11/14 06:13:33;;;;;;;95.10;64.97;;;6.20;99.90;;;;;;5104065;27;20043;-81
2022/11/14 06:16:04;;;;;;;94.40;65.85;;;6.20;99.90;;;;;;5119003;27;20047;-80
2022/11/14 06:18:31;;;;;;;89.78;63.33;;;6.20;99.90;;;;;;5111697;27;20042;-80
2022/11/14 06:21:11;;;;;;;96.32;65.90;;;6.20;99.90;;;;;;5121647;27;20074;-81
2022/11/14 06:23:37;;;;;;;94.88;64.20;;;6.20;99.90;;;;;;5123269;27;20501;-80
2022/11/14 06:26:09;;;;;;;93.28;63.20;;;6.20;99.90;;;;;;5119644;27;20047;-80
2022/11/14 06:28:35;;;;;;;;;;;6.10;99.90;;;;;;5116453;27;20043;-80
2022/11/14 06:31:02;;;;;;;96.18;63.85;;;6.10;99.90;;;;;;5117096;27;19926;-81
2022/11/14 06:33:32;;;;;;;100.20;67.85;;;6.10;99.90;;;;;;5107423;27;20544;-80
2022/11/14 06:36:00;;;;;;;97.22;66.78;;;6.10;99.90;;;;;;5100366;27;20465;-79
2022/11/14 06:38:27;;;;;;;96.82;65.05;;;6.00;99.90;;;;;;5081609;27;20039;-80
2022/11/14 06:41:01;;;;;;;108.55;69.82;;;6.00;99.90;;;;;;5122372;27;20148;-80
2022/11/14 06:43:27;;;;;;;99.22;68.38;;;6.00;99.90;;;;;;5103273;27;20035;-80
2022/11/14 06:45:53;;;;;;;99.35;64.75;;;6.00;99.90;;;;;;5111510;27;20397;-81
2022/11/14 06:48:19;;;;;;;99.10;67.25;;;6.00;99.90;;;;;;5135048;27;20059;-81
2022/11/14 06:50:51;;;;;;;103.03;68.90;;;6.00;99.90;;;;;;5104021;27;20308;-80
2022/11/14 06:53:17;;;;;;;109.05;70.63;;;6.00;99.90;;;;;;5100465;27;20134;-81
2022/11/14 06:55:50;;;;;;;103.32;69.10;;;6.00;99.90;;;;;;5119204;27;20088;-80
2022/11/14 06:58:16;;;;;;;101.32;67.75;;;6.00;99.90;;;;;;5086455;27;20036;-81
2022/11/14 07:00:42;;;;;;;104.38;70.38;;;6.00;99.90;;;;;;5096838;27;20319;-80
2022/11/14 07:03:08;;;;;;;107.63;69.65;;;6.00;99.90;;;;;;5085540;27;20471;-80
2022/11/14 07:05:34;;;;;;;104.60;67.20;;;6.00;99.90;;;;;;5113335;27;20393;-80
2022/11/14 07:07:59;;;;;;;106.05;69.50;;;6.00;99.90;;;;;;5096257;27;20493;-81
2022/11/14 07:10:25;;;;;;;105.88;69.68;;;6.00;99.90;;;;;;5097631;27;20126;-80
2022/11/14 07:12:54;;;;;;;113.28;71.70;;;6.00;99.90;;;;;;5131110;27;20046;-81
2022/11/14 07:15:20;;;;;;;109.60;70.03;;;6.00;99.90;;;;;;5099445;27;20044;-81
2022/11/14 07:17:47;;;;;;;108.05;69.63;;;6.00;99.90;;;;;;5117404;27;20048;-80
2022/11/14 07:20:14;;;;;;;103.60;67.57;;;5.90;99.90;;;;;;5112888;27;20050;-80
2022/11/14 07:22:40;;;;;;;104.85;68.50;;;5.90;99.90;;;;;;5117799;27;20050;-80
2022/11/14 07:25:06;;;;;;;102.88;67.38;;;5.90;99.90;;;;;;5092441;27;20051;-81
2022/11/14 07:27:35;;;;;;;98.45;64.35;;;5.90;99.90;;;;;;5101593;27;20051;-81
2022/11/14 07:30:01;;;;;;;103.28;69.53;;;5.90;99.90;;;;;;5085927;27;20483;-79
2022/11/14 07:32:26;;;;;;;98.93;65.60;;;5.90;99.90;;;;;;5071392;27;20035;-80
2022/11/14 07:34:52;;;;;;;101.43;66.88;;;5.80;99.90;;;;;;5122678;27;20116;-80
2022/11/14 07:37:18;;;;;;;102.70;67.72;;;5.80;99.90;;;;;;5096983;27;20053;-79
2022/11/14 07:39:44;;;;;;;99.95;66.00;;;5.80;99.90;;;;;;5109859;27;20098;-80
2022/11/14 07:42:10;;;;;;;93.93;63.00;;;5.80;99.90;;;;;;5085597;27;20047;-81
2022/11/14 07:44:42;;;;;;;101.13;66.20;;;5.90;99.90;;;;;;5112518;27;20039;-83
2022/11/14 07:47:08;;;;;;;97.43;65.00;;;5.80;99.90;;;;;;5117629;27;20043;-83
2022/11/14 07:49:34;;;;;;;101.22;67.50;;;5.80;99.90;;;;;;5107187;27;20588;-84
2022/11/14 07:52:00;;;;;;;105.88;68.55;;;5.80;99.90;;;;;;5101945;27;20055;-82
2022/11/14 07:54:25;;;;;;;103.63;69.03;;;5.80;99.90;;;;;;5083989;27;20555;-83
2022/11/14 07:56:51;;;;;;;103.47;67.28;;;5.80;99.90;;;;;;5147354;27;20086;-84
2022/11/14 07:59:17;;;;;;;100.70;67.43;;;5.80;99.90;;;;;;5123058;27;20050;-83
2022/11/14 08:01:43;;;;;;;102.68;69.93;;;5.80;99.90;;;;;;5117263;27;20051;-84
2022/11/14 08:04:09;;;;;;;96.50;66.35;;;5.80;99.90;;;;;;5113112;27;20043;-84
2022/11/14 08:06:34;;;;;;;98.03;67.72;;;5.80;99.90;;;;;;5148391;27;20473;-83
2022/11/14 08:09:00;;;;;;;100.88;67.40;;;5.80;99.90;;;;;;5104250;27;20047;-84
2022/11/14 08:14:10;;;;;;;94.82;64.78;;;5.80;99.90;;;;;;5102424;27;20039;-81
2022/11/14 08:16:36;;;;;;;93.80;64.55;;;5.90;99.90;;;;;;5098707;27;20046;-82
2022/11/14 08:19:02;;;;;;;96.05;66.18;;;5.90;99.90;;;;;;5149945;27;20691;-83
2022/11/14 08:21:28;;;;;;;87.90;63.50;;;5.90;99.90;;;;;;5119766;27;20550;-83
2022/11/14 08:23:54;;;;;;;89.32;62.80;;;5.90;99.90;;;;;;5116194;27;20047;-82
2022/11/14 08:26:19;;;;;;;86.82;60.42;;;5.90;99.90;;;;;;5113080;27;20073;-82
2022/11/14 08:28:45;;;;;;;90.97;64.53;;;5.90;99.90;;;;;;5114788;27;20406;-81
2022/11/14 08:31:12;;;;;;;90.50;63.30;;;6.00;99.90;;;;;;5141151;27;20194;-83
2022/11/14 08:33:38;;;;;;;87.28;61.17;;;6.00;99.90;;;;;;5121000;27;20047;-83
2022/11/14 08:36:06;;;;;;;86.95;61.50;;;6.00;99.90;;;;;;5149145;27;20055;-74
2022/11/14 08:38:33;;;;;;;87.88;60.78;;;6.00;99.90;;;;;;5100409;27;20043;-75
2022/11/14 08:41:00;;;;;;;83.30;60.53;;;6.00;99.90;;;;;;5116258;27;20047;-74
2022/11/14 08:43:26;;;;;;;90.53;64.40;;;6.00;99.90;;;;;;5127616;27;20523;-74
2022/11/14 08:45:56;;;;;;;88.65;62.58;;;6.00;99.90;;;;;;5125808;27;20992;-74
2022/11/14 08:48:22;;;;;;;86.13;58.97;;;6.00;99.90;;;;;;5124007;27;20436;-75
2022/11/14 08:50:48;;;;;;;82.65;59.60;;;6.00;99.90;;;;;;5127947;27;20385;-74
2022/11/14 08:53:14;;;;;;;83.63;59.58;;;6.00;99.90;;;;;;5120561;27;20054;-75
2022/11/14 08:55:44;;;;;;;88.53;61.97;;;6.10;99.90;;;;;;5087117;27;20397;-75
2022/11/14 08:58:09;;;;;;;76.22;57.35;;;6.10;99.90;;;;;;5130048;27;20050;-75
2022/11/14 09:00:35;;;;;;;81.93;58.17;;;6.10;99.90;;;;;;5122912;27;20047;-75
2022/11/14 09:03:12;;;;;;;79.30;57.85;;;6.10;99.90;;;;;;5137707;27;20516;-75
2022/11/14 09:05:38;;;;;;;78.13;57.35;;;6.20;99.90;;;;;;5106410;27;20048;-75
2022/11/14 09:08:03;;;;;;;79.28;57.72;;;6.20;99.90;;;;;;5111069;27;20126;-84
2022/11/14 09:10:29;;;;;;;78.22;57.95;;;6.20;99.90;;;;;;5124889;27;20474;-84
2022/11/14 09:12:59;;;;;;;80.25;56.75;;;6.20;99.90;;;;;;5099493;27;20451;-84
2022/11/14 09:15:29;;;;;;;75.82;55.47;;;6.30;99.90;;;;;;5087430;27;20577;-82
2022/11/14 09:17:55;;;;;;;74.37;55.37;;;6.30;99.90;;;;;;5119889;27;20087;-81
2022/11/14 09:20:23;;;;;;;79.55;57.30;;;6.40;99.90;;;;;;5108271;27;20039;-81
2022/11/14 09:22:52;;;;;;;73.25;55.47;;;6.50;99.90;;;;;;5110023;27;20160;-81
2022/11/14 09:25:19;;;;;;;71.72;53.45;;;6.50;99.90;;;;;;5102432;27;20054;-81
2022/11/14 09:27:45;;;;;;;75.95;56.70;;;6.70;99.90;;;;;;5100540;27;20063;-81
2022/11/14 09:30:13;;;;;;;75.70;55.85;;;6.70;99.90;;;;;;5105373;27;20481;-80
2022/11/14 09:32:38;;;;;;;76.40;56.20;;;6.70;99.90;;;;;;5107225;27;20080;-80
2022/11/14 09:35:04;;;;;;;72.07;54.00;;;6.70;99.90;;;;;;5120608;27;20071;-81
2022/11/14 09:37:30;;;;;;;69.70;52.05;;;6.80;99.90;;;;;;5100821;27;20929;-81
2022/11/14 09:39:56;;;;;;;68.35;50.92;;;6.80;99.90;;;;;;5095608;27;20042;-80
2022/11/14 09:42:28;;;;;;;72.30;53.60;;;6.70;99.90;;;;;;5110819;27;20047;-81
2022/11/14 09:45:01;;;;;;;65.82;50.38;;;6.80;99.90;;;;;;5111204;27;20055;-81
2022/11/14 09:47:55;;;;;;;67.95;51.47;;;6.80;99.90;;;;;;5119552;27;20107;-82
2022/11/14 09:50:31;;;;;;;64.78;49.63;;;6.80;99.90;;;;;;5108849;27;20094;-82
2022/11/14 09:53:26;;;;;;;63.65;50.20;;;6.90;99.90;;;;;;5105160;27;20050;-81
2022/11/14 09:55:52;;;;;;;65.22;49.97;;;6.90;99.90;;;;;;5115445;27;20062;-82
2022/11/14 09:58:20;;;;;;;64.30;49.72;;;7.00;99.90;;;;;;5106669;27;20043;-80
2022/11/14 10:01:07;;;;;;;60.65;48.25;;;7.00;99.90;;;;;;5104020;27;20485;-81
2022/11/14 10:04:06;;;;;;;63.65;49.53;;;7.00;99.90;;;;;;5120728;27;20096;-82
2022/11/14 10:06:37;;;;;;;64.95;50.33;;;7.00;99.90;;;;;;5031700;27;20131;-82
2022/11/14 10:09:25;;;;;;;65.38;51.53;;;7.00;99.90;;;;;;5105211;27;20051;-73
2022/11/14 10:12:10;;;;;;;60.60;49.65;;;7.00;99.90;;;;;;5121915;27;20051;-81
2022/11/14 10:15:05;;;;;;;66.85;53.05;;;7.00;99.90;;;;;;5118991;27;20490;-82
2022/11/14 10:17:40;;;;;;;60.70;48.28;;;7.00;99.90;;;;;;5103023;27;20162;-83
2022/11/14 10:20:14;;;;;;;62.58;50.28;;;7.10;99.90;;;;;;5120781;27;20412;-81
2022/11/14 10:22:47;;;;;;;63.13;50.33;;;7.10;99.90;;;;;;5119533;27;20051;-83
2022/11/14 10:25:35;;;;;;;63.60;48.30;;;7.10;99.90;;;;;;5103062;27;20532;-83
2022/11/14 10:28:27;;;;;;;61.03;49.17;;;7.10;99.90;;;;;;5120033;27;20165;-82
2022/11/14 10:31:24;;;;;;;63.17;49.00;;;7.10;99.90;;;;;;5115300;27;20070;-82
2022/11/14 10:34:12;;;;;;;59.83;48.40;;;7.20;99.90;;;;;;5127725;27;20063;-81
2022/11/14 10:37:00;;;;;;;59.05;47.83;;;7.20;99.90;;;;;;5101192;27;20048;-82
2022/11/14 10:40:13;;;;;;;60.42;49.83;;;7.20;99.90;;;;;;5114524;27;20126;-81
2022/11/14 10:42:43;;;;;;;60.10;48.03;;;7.40;99.90;;;;;;5064251;27;20285;-82
2022/11/14 10:45:32;;;;;;;60.83;47.88;;;7.40;99.90;;;;;;5118196;27;20551;-81
2022/11/14 10:48:11;;;;;;;57.30;46.58;;;7.50;99.90;;;;;;5105373;27;20134;-82
2022/11/14 10:50:43;;;;;;;55.65;46.60;;;7.50;99.90;;;;;;5110118;27;20054;-82
2022/11/14 10:53:34;;;;;;;58.35;46.95;;;7.50;99.90;;;;;;5122968;27;20216;-83
2022/11/14 10:55:59;;;;;;;;;;;7.50;99.90;;;;;;5106763;27;20118;-81
2022/11/14 10:58:25;;;;;;;55.15;46.50;;;7.50;99.90;;;;;;5112266;27;20449;-81
2022/11/14 11:00:51;;;;;;;54.33;46.22;;;7.50;99.90;;;;;;5107469;27;20103;-81
2022/11/14 11:03:17;;;;;;;52.38;42.70;;;7.50;99.90;;;;;;5128040;27;20082;-82
2022/11/14 11:05:55;;;;;;;52.83;44.72;;;7.60;99.90;;;;;;5100666;27;20046;-81
2022/11/14 11:11:28;;;;;;;51.53;43.80;;;7.60;99.90;;;;;;5118102;27;20063;-84
2022/11/14 11:13:57;;;;;;;54.88;45.72;;;7.70;99.90;;;;;;5136757;27;20039;-75
2022/11/14 11:16:25;;;;;;;50.63;44.45;;;7.70;99.90;;;;;;5154388;27;20176;-74
2022/11/14 11:18:51;;;;;;;50.25;43.15;;;7.70;99.90;;;;;;5097802;27;20079;-74
2022/11/14 11:21:22;;;;;;;52.85;43.97;;;7.70;99.90;;;;;;5124280;27;20058;-74
2022/11/14 11:23:55;;;;;;;;;;;7.80;99.90;;;;;;5100446;27;20402;-74
2022/11/14 11:26:29;;;;;;;54.22;44.03;;;7.80;99.90;;;;;;5120217;27;19927;-81
2022/11/14 11:29:13;;;;;;;51.08;43.22;;;7.80;99.90;;;;;;5135681;27;20564;-81
2022/11/14 11:31:54;;;;;;;48.80;41.88;;;7.90;99.90;;;;;;5114340;27;20134;-83
2022/11/14 11:34:26;;;;;;;49.92;42.53;;;7.90;99.90;;;;;;5110547;27;20149;-82
2022/11/14 11:37:12;;;;;;;50.97;44.17;;;7.90;99.90;;;;;;5109993;27;20649;-82
2022/11/14 11:39:46;;;;;;;49.55;41.53;;;8.00;99.90;;;;;;5117090;27;20047;-83
2022/11/14 11:42:19;;;;;;;48.13;42.90;;;8.00;99.90;;;;;;5113909;27;20078;-82
2022/11/14 11:44:49;;;;;;;46.47;40.88;;;8.00;99.90;;;;;;5119061;27;20051;-82
2022/11/14 11:47:18;;;;;;;49.63;42.22;;;8.00;99.90;;;;;;5114360;27;20052;-81
2022/11/14 11:49:48;;;;;;;50.22;42.83;;;8.00;99.90;;;;;;5111776;27;20498;-82
2022/11/14 11:52:23;;;;;;;48.78;41.92;;;8.00;99.90;;;;;;5102398;28;20048;-81
2022/11/14 11:54:57;;;;;;;47.75;41.17;;;8.10;99.90;;;;;;5106309;27;20043;-82
2022/11/14 11:57:43;;;;;;;47.75;41.50;;;8.10;99.90;;;;;;5112380;27;20061;-83
2022/11/14 12:00:19;;;;;;;46.50;41.00;;;8.10;99.90;;;;;;5108483;27;20497;-81
2022/11/14 12:02:50;;;;;;;49.05;42.50;;;8.20;99.90;;;;;;5125509;27;20130;-83
2022/11/14 12:05:30;;;;;;;47.45;40.40;;;8.20;99.90;;;;;;5147539;27;20054;-82
2022/11/14 12:08:08;;;;;;;44.83;39.53;;;8.30;99.90;;;;;;5106617;27;20075;-82
2022/11/14 12:10:39;;;;;;;45.10;39.47;;;8.30;99.90;;;;;;5120526;27;20541;-83
2022/11/14 12:13:29;;;;;;;44.72;39.55;;;8.30;99.90;;;;;;5113064;27;20131;-82
2022/11/14 12:16:16;;;;;;;45.30;40.08;;;8.40;99.90;;;;;;5115604;27;20508;-83
2022/11/14 12:19:01;;;;;;;43.65;37.95;;;8.40;99.90;;;;;;5115208;27;20584;-82
2022/11/14 12:21:44;;;;;;;44.25;38.63;;;8.40;99.90;;;;;;5114606;27;20517;-84
2022/11/14 12:24:47;;;;;;;42.40;37.60;;;8.40;99.90;;;;;;5143524;27;20120;-82
2022/11/14 12:27:35;;;;;;;42.13;36.97;;;8.40;99.90;;;;;;5099893;28;20043;-82
2022/11/14 12:30:04;;;;;;;43.33;36.60;;;8.50;99.90;;;;;;5112827;27;20047;-83
2022/11/14 12:32:54;;;;;;;41.15;34.83;;;8.50;99.90;;;;;;5121344;27;20514;-84
2022/11/14 12:35:33;;;;;;;40.05;35.80;;;8.50;99.90;;;;;;5103864;27;20051;-83
2022/11/14 12:38:03;;;;;;;41.33;36.83;;;8.60;99.90;;;;;;5113946;27;20317;-81
2022/11/14 12:40:31;;;;;;;41.78;36.60;;;8.60;99.90;;;;;;5093683;27;20112;-82
2022/11/14 12:42:58;;;;;;;40.85;35.38;;;8.60;99.90;;;;;;5097111;27;20163;-82
2022/11/14 12:45:39;;;;;;;41.08;35.47;;;8.60;99.90;;;;;;5114260;27;20075;-82
2022/11/14 12:48:30;;;;;;;39.55;35.38;;;8.70;99.90;;;;;;5099832;28;20051;-82
2022/11/14 12:50:57;;;;;;;37.67;33.50;;;8.70;99.90;;;;;;5143266;27;20042;-81
2022/11/14 12:53:34;;;;;;;39.53;34.70;;;8.80;99.90;;;;;;5090768;28;20130;-82
2022/11/14 12:56:16;;;;;;;39.55;35.15;;;8.80;99.90;;;;;;5092402;27;20039;-83